Time;durP1;ratioP1;P1;durP2;ratioP2;P2;SDS_P1;SDS_P2;PMS_P1;PMS_P2;Temp;Humidity;BMP_temperature;BMP_pressure;BME280_temperature;BME280_humidity;BME280_pressure;Samples;Min_cycle;Max_cycle;Signal;HPM_P1;HPM_P2
2022/04/17 00:01:33;;;;;;;1.83;1.30;;;;;;;;;;8194666;28;20037;-70
2022/04/17 00:05:34;;;;;;;2.33;1.40;;;;;;;;;;8197996;28;20831;-70
2022/04/17 00:09:35;;;;;;;1.30;1.20;;;;;;;;;;8198859;28;20041;-70
2022/04/17 00:13:36;;;;;;;1.42;1.33;;;;;;;;;;8195279;28;20370;-70
2022/04/17 00:17:46;;;;;;;2.75;1.35;;;;;;;;;;8185964;28;20042;-70
2022/04/17 00:21:47;;;;;;;2.38;1.38;;;;;;;;;;8168488;28;20523;-70
2022/04/17 00:25:47;;;;;;;1.20;1.10;;;;;;;;;;8190206;28;20600;-70
2022/04/17 00:29:47;;;;;;;1.75;1.20;;;;;;;;;;8187235;28;20019;-70
2022/04/17 00:33:48;;;;;;;1.85;1.42;;;;;;;;;;8186118;28;20923;-70
2022/04/17 00:37:48;;;;;;;1.38;1.10;;;;;;;;;;8189286;28;20026;-70
2022/04/17 00:41:48;;;;;;;2.65;1.10;;;;;;;;;;8168138;28;20054;-70
2022/04/17 00:45:48;;;;;;;1.75;1.20;;;;;;;;;;8188109;28;20044;-70
2022/04/17 00:49:49;;;;;;;1.20;1.10;;;;;;;;;;8171101;28;20023;-70
2022/04/17 00:53:50;;;;;;;1.17;1.10;;;;;;;;;;8189969;28;20023;-70
2022/04/17 00:57:50;;;;;;;2.05;1.10;;;;;;;;;;8193614;28;20029;-70
2022/04/17 01:01:50;;;;;;;5.57;1.10;;;;;;;;;;8192205;28;20035;-70
2022/04/17 01:05:51;;;;;;;2.78;1.30;;;;;;;;;;8194251;28;20026;-70
2022/04/17 01:09:51;;;;;;;2.42;1.50;;;;;;;;;;8194848;28;20018;-70
2022/04/17 01:13:52;;;;;;;3.85;1.38;;;;;;;;;;8193103;28;20085;-69
2022/04/17 01:17:53;;;;;;;2.17;1.40;;;;;;;;;;8191253;28;20042;-70
2022/04/17 01:21:53;;;;;;;1.77;1.30;;;;;;;;;;8190657;28;20039;-70
2022/04/17 01:30:13;;;;;;;1.83;1.27;;;;;;;;;;8191986;28;20532;-70
2022/04/17 01:34:16;;;;;;;1.30;1.20;;;;;;;;;;8192611;28;20027;-70
2022/04/17 01:38:16;;;;;;;3.40;1.30;;;;;;;;;;8193234;28;20071;-70
2022/04/17 01:42:17;;;;;;;2.58;1.33;;;;;;;;;;8191411;28;20043;-70
2022/04/17 01:46:17;;;;;;;1.73;1.20;;;;;;;;;;8192820;28;20046;-70
2022/04/17 01:50:17;;;;;;;1.73;1.35;;;;;;;;;;8191595;28;21206;-70
2022/04/17 01:54:18;;;;;;;2.90;1.52;;;;;;;;;;8176107;28;20720;-69
2022/04/17 01:58:18;;;;;;;1.67;1.40;;;;;;;;;;8192312;28;20029;-70
2022/04/17 02:02:18;;;;;;;3.45;1.50;;;;;;;;;;8192111;28;20039;-70
2022/04/17 02:06:19;;;;;;;1.58;1.20;;;;;;;;;;8174250;28;20022;-70
2022/04/17 02:10:19;;;;;;;1.35;1.10;;;;;;;;;;8192258;28;20121;-70
2022/04/17 02:14:19;;;;;;;1.27;1.10;;;;;;;;;;8192802;28;20039;-70
2022/04/17 02:18:20;;;;;;;2.03;1.10;;;;;;;;;;8192824;28;20035;-70
2022/04/17 02:22:21;;;;;;;1.42;1.33;;;;;;;;;;8198183;28;20811;-69
2022/04/17 02:26:21;;;;;;;2.38;1.30;;;;;;;;;;8201036;28;20066;-70
2022/04/17 02:30:21;;;;;;;2.00;1.63;;;;;;;;;;8200573;28;20141;-70
2022/04/17 02:34:21;;;;;;;1.40;1.30;;;;;;;;;;8200366;28;20026;-70
2022/04/17 02:38:21;;;;;;;1.77;1.33;;;;;;;;;;8200411;28;20618;-70
2022/04/17 02:42:22;;;;;;;2.38;1.30;;;;;;;;;;8201696;28;20023;-70
2022/04/17 02:50:41;;;;;;;1.50;1.30;;;;;;;;;;8198774;28;20341;-70
2022/04/17 02:54:41;;;;;;;3.30;1.37;;;;;;;;;;8200851;28;20560;-70
2022/04/17 02:58:41;;;;;;;3.67;1.77;;;;;;;;;;8203737;28;20285;-70
2022/04/17 03:07:01;;;;;;;1.92;1.38;;;;;;;;;;8201153;28;20679;-69
2022/04/17 03:11:02;;;;;;;1.90;1.30;;;;;;;;;;8198810;28;20082;-70
2022/04/17 03:15:02;;;;;;;5.20;1.55;;;;;;;;;;8188054;28;20800;-70
2022/04/17 03:19:02;;;;;;;1.35;1.27;;;;;;;;;;8197014;28;20130;-69
2022/04/17 03:23:03;;;;;;;1.42;1.33;;;;;;;;;;8199752;28;20908;-70
2022/04/17 03:27:03;;;;;;;1.85;1.50;;;;;;;;;;8199311;28;20030;-70
2022/04/17 03:31:04;;;;;;;2.50;1.45;;;;;;;;;;8197610;28;20035;-70
2022/04/17 03:35:04;;;;;;;7.20;1.60;;;;;;;;;;8198186;28;20495;-69
2022/04/17 03:39:05;;;;;;;1.33;1.25;;;;;;;;;;8196197;28;20036;-70
2022/04/17 03:43:06;;;;;;;2.28;1.50;;;;;;;;;;8177345;28;20105;-70
2022/04/17 03:47:07;;;;;;;3.50;1.60;;;;;;;;;;8197125;28;20039;-70
2022/04/17 03:51:07;;;;;;;2.25;1.67;;;;;;;;;;8199085;28;20046;-70
2022/04/17 03:55:08;;;;;;;1.50;1.40;;;;;;;;;;8199404;28;20110;-70
2022/04/17 03:59:09;;;;;;;2.72;1.50;;;;;;;;;;8196852;28;20026;-70
2022/04/17 04:03:09;;;;;;;1.50;1.40;;;;;;;;;;8195924;28;20042;-70
2022/04/17 04:07:09;;;;;;;2.03;1.40;;;;;;;;;;8188282;28;20027;-69
2022/04/17 04:11:09;;;;;;;1.70;1.50;;;;;;;;;;8198051;28;20058;-70
2022/04/17 04:15:10;;;;;;;7.95;1.65;;;;;;;;;;8196481;28;20029;-70
2022/04/17 04:19:12;;;;;;;1.60;1.50;;;;;;;;;;8199279;28;20026;-70
2022/04/17 04:23:12;;;;;;;1.98;1.48;;;;;;;;;;8198223;28;20081;-70
2022/04/17 04:31:31;;;;;;;1.30;1.20;;;;;;;;;;8204070;28;20090;-69
2022/04/17 04:35:33;;;;;;;1.55;1.20;;;;;;;;;;8203729;28;20556;-70
2022/04/17 04:39:33;;;;;;;1.98;1.58;;;;;;;;;;8205927;28;20035;-70
2022/04/17 04:43:33;;;;;;;1.53;1.40;;;;;;;;;;8205157;28;20995;-70
2022/04/17 04:47:34;;;;;;;3.13;1.88;;;;;;;;;;8202676;28;20314;-69
2022/04/17 04:51:36;;;;;;;1.40;1.30;;;;;;;;;;8200503;28;20034;-70
2022/04/17 04:55:36;;;;;;;1.73;1.48;;;;;;;;;;8204984;28;20913;-70
2022/04/17 04:59:36;;;;;;;1.45;1.35;;;;;;;;;;8204483;28;20069;-70
2022/04/17 05:03:36;;;;;;;1.50;1.40;;;;;;;;;;8203748;28;20592;-70
2022/04/17 05:07:37;;;;;;;2.40;1.67;;;;;;;;;;8197288;28;20023;-69
2022/04/17 05:11:38;;;;;;;2.58;1.55;;;;;;;;;;8198674;28;20033;-69
2022/04/17 05:15:39;;;;;;;1.65;1.38;;;;;;;;;;8179959;28;20039;-69
2022/04/17 05:19:39;;;;;;;2.22;1.60;;;;;;;;;;8197186;28;20033;-69
2022/04/17 05:23:40;;;;;;;2.97;1.50;;;;;;;;;;8196237;28;20029;-69
2022/04/17 05:27:40;;;;;;;3.65;1.80;;;;;;;;;;8195813;28;20058;-69
2022/04/17 05:31:40;;;;;;;1.98;1.30;;;;;;;;;;8194915;28;20461;-69
2022/04/17 05:35:40;;;;;;;5.70;1.60;;;;;;;;;;8195540;28;20035;-69
2022/04/17 05:39:41;;;;;;;1.80;1.50;;;;;;;;;;8196047;28;20031;-69
2022/04/17 05:43:41;;;;;;;4.55;1.60;;;;;;;;;;8195800;28;20034;-69
2022/04/17 05:47:41;;;;;;;2.85;1.90;;;;;;;;;;8194434;28;20050;-68
2022/04/17 05:51:41;;;;;;;2.73;1.80;;;;;;;;;;8195834;28;20034;-69
2022/04/17 05:55:41;;;;;;;1.77;1.60;;;;;;;;;;8195259;28;20288;-69
2022/04/17 05:59:42;;;;;;;3.33;1.67;;;;;;;;;;8176214;28;20061;-69
2022/04/17 06:03:42;;;;;;;2.15;1.60;;;;;;;;;;8194679;28;20042;-69
2022/04/17 06:07:43;;;;;;;2.50;1.70;;;;;;;;;;8195871;28;20110;-69
2022/04/17 06:11:43;;;;;;;1.85;1.58;;;;;;;;;;8195974;28;20038;-69
2022/04/17 06:15:43;;;;;;;2.63;1.75;;;;;;;;;;8195705;28;20035;-69
2022/04/17 06:19:43;;;;;;;2.58;1.67;;;;;;;;;;8195866;28;20109;-69
2022/04/17 06:23:43;;;;;;;2.75;1.67;;;;;;;;;;8194403;28;20026;-69
2022/04/17 06:27:48;;;;;;;2.65;1.92;;;;;;;;;;8195948;28;20049;-69
2022/04/17 06:31:48;;;;;;;3.00;1.90;;;;;;;;;;8193968;28;20031;-69
2022/04/17 06:35:49;;;;;;;2.10;1.90;;;;;;;;;;8195093;28;20030;-69
2022/04/17 06:39:49;;;;;;;3.20;1.80;;;;;;;;;;8194507;28;20130;-70
2022/04/17 06:43:50;;;;;;;2.95;2.28;;;;;;;;;;8193597;28;20372;-69
2022/04/17 06:47:50;;;;;;;4.13;1.98;;;;;;;;;;8194046;28;20890;-69
2022/04/17 06:51:50;;;;;;;2.10;1.70;;;;;;;;;;8194086;28;20504;-69
2022/04/17 06:55:52;;;;;;;2.25;1.70;;;;;;;;;;8194108;28;20034;-69
2022/04/17 06:59:52;;;;;;;4.07;1.77;;;;;;;;;;8177779;28;20030;-69
2022/04/17 07:03:53;;;;;;;1.98;1.67;;;;;;;;;;8193284;28;20042;-69
2022/04/17 07:07:57;;;;;;;2.58;1.70;;;;;;;;;;8192584;28;20110;-70
2022/04/17 07:11:57;;;;;;;4.45;1.50;;;;;;;;;;8195712;28;20033;-70
2022/04/17 07:15:58;;;;;;;1.80;1.65;;;;;;;;;;8191864;28;20033;-70
2022/04/17 07:19:58;;;;;;;3.13;1.80;;;;;;;;;;8193246;28;20057;-70
2022/04/17 07:23:58;;;;;;;2.80;1.65;;;;;;;;;;8190646;28;20089;-70
2022/04/17 07:27:58;;;;;;;2.50;1.80;;;;;;;;;;8193490;28;20029;-70
2022/04/17 07:31:58;;;;;;;2.55;1.83;;;;;;;;;;8189275;28;20061;-70
2022/04/17 07:35:59;;;;;;;4.78;2.08;;;;;;;;;;8193561;28;20782;-70
2022/04/17 07:39:59;;;;;;;3.55;1.75;;;;;;;;;;8192210;28;20074;-70
2022/04/17 07:43:59;;;;;;;4.03;2.00;;;;;;;;;;8193777;28;20027;-70
2022/04/17 07:47:59;;;;;;;2.42;1.75;;;;;;;;;;8191732;28;20030;-70
2022/04/17 07:51:59;;;;;;;3.58;1.88;;;;;;;;;;8191006;28;20039;-70
2022/04/17 07:56:00;;;;;;;2.67;1.87;;;;;;;;;;8193988;28;20034;-70
2022/04/17 08:00:00;;;;;;;2.97;1.85;;;;;;;;;;8192090;28;20057;-70
2022/04/17 08:04:00;;;;;;;2.00;1.53;;;;;;;;;;8192620;28;20094;-70
2022/04/17 08:08:00;;;;;;;2.10;1.70;;;;;;;;;;8193125;28;20273;-70
2022/04/17 08:12:01;;;;;;;2.38;2.05;;;;;;;;;;8191901;28;20146;-70
2022/04/17 08:16:04;;;;;;;2.42;1.90;;;;;;;;;;8191640;28;20701;-70
2022/04/17 08:20:05;;;;;;;3.78;1.98;;;;;;;;;;8190923;28;20026;-70
2022/04/17 08:24:05;;;;;;;2.63;1.85;;;;;;;;;;8189461;28;20031;-70
2022/04/17 08:28:05;;;;;;;2.72;1.73;;;;;;;;;;8191132;28;20029;-70
2022/04/17 08:32:05;;;;;;;2.80;1.97;;;;;;;;;;8192031;28;20039;-70
2022/04/17 08:36:07;;;;;;;2.72;1.77;;;;;;;;;;8191015;28;21346;-70
2022/04/17 08:40:08;;;;;;;5.05;1.77;;;;;;;;;;8192834;28;20042;-70
2022/04/17 08:44:09;;;;;;;3.83;1.80;;;;;;;;;;8190449;28;20039;-70
2022/04/17 08:48:09;;;;;;;5.18;2.67;;;;;;;;;;8188581;28;20125;-70
2022/04/17 08:52:15;;;;;;;3.90;1.80;;;;;;;;;;8191055;28;20037;-70
2022/04/17 08:56:15;;;;;;;2.83;2.10;;;;;;;;;;8191725;28;20113;-70
2022/04/17 09:00:17;;;;;;;4.95;1.90;;;;;;;;;;8190569;28;20789;-70
2022/04/17 09:04:17;;;;;;;3.10;1.88;;;;;;;;;;8191168;28;20031;-70
2022/04/17 09:08:18;;;;;;;4.13;2.17;;;;;;;;;;8172951;28;20161;-70
2022/04/17 09:12:23;;;;;;;3.30;1.70;;;;;;;;;;8190482;28;20397;-70
2022/04/17 09:16:27;;;;;;;3.00;2.03;;;;;;;;;;8196402;28;20057;-70
2022/04/17 09:20:28;;;;;;;3.83;1.80;;;;;;;;;;8194298;28;20031;-70
2022/04/17 09:24:28;;;;;;;2.58;1.98;;;;;;;;;;8196194;28;20030;-70
2022/04/17 09:28:32;;;;;;;2.75;2.00;;;;;;;;;;8196254;28;20065;-70
2022/04/17 09:32:32;;;;;;;3.05;2.00;;;;;;;;;;8192403;28;20057;-70
2022/04/17 09:36:33;;;;;;;3.70;2.00;;;;;;;;;;8196077;28;20065;-70
2022/04/17 09:40:36;;;;;;;4.53;2.60;;;;;;;;;;8195662;28;20739;-69
2022/04/17 09:44:46;;;;;;;2.22;1.75;;;;;;;;;;8194748;28;20081;-69
2022/04/17 09:48:46;;;;;;;3.33;1.95;;;;;;;;;;8178043;28;20066;-68
2022/04/17 09:52:47;;;;;;;2.83;1.80;;;;;;;;;;8195877;28;20035;-68
2022/04/17 09:56:47;;;;;;;3.13;1.92;;;;;;;;;;8194726;28;20527;-68
2022/04/17 10:00:48;;;;;;;2.73;1.60;;;;;;;;;;8195142;28;20148;-69
2022/04/17 10:04:48;;;;;;;1.90;1.67;;;;;;;;;;8195159;28;20031;-68
2022/04/17 10:08:50;;;;;;;2.45;1.60;;;;;;;;;;8195211;28;20529;-69
2022/04/17 10:12:50;;;;;;;2.65;2.00;;;;;;;;;;8193752;28;20469;-68
2022/04/17 10:16:53;;;;;;;3.33;1.75;;;;;;;;;;8175990;28;20861;-69
2022/04/17 10:20:55;;;;;;;2.17;1.50;;;;;;;;;;8195027;28;20073;-69
2022/04/17 10:24:57;;;;;;;1.92;1.52;;;;;;;;;;8193562;28;20046;-69
2022/04/17 10:28:59;;;;;;;6.78;1.98;;;;;;;;;;8194579;28;20027;-69
2022/04/17 10:33:02;;;;;;;1.77;1.50;;;;;;;;;;8191944;28;20070;-68
2022/04/17 10:37:02;;;;;;;2.97;1.60;;;;;;;;;;8192615;28;20141;-68
2022/04/17 10:41:07;;;;;;;3.35;1.80;;;;;;;;;;8193096;28;20062;-69
2022/04/17 10:45:08;;;;;;;2.90;1.50;;;;;;;;;;8193819;28;20118;-69
2022/04/17 10:49:08;;;;;;;3.08;1.70;;;;;;;;;;8193769;28;20070;-71
2022/04/17 10:53:21;;;;;;;1.90;1.50;;;;;;;;;;8192539;28;20169;-71
2022/04/17 10:57:23;;;;;;;4.03;1.57;;;;;;;;;;8193070;28;20058;-70
2022/04/17 11:01:42;;;;;;;3.05;1.67;;;;;;;;;;8192049;28;20503;-70
2022/04/17 11:10:17;;;;;;;2.00;1.63;;;;;;;;;;8192009;28;20034;-70
2022/04/17 11:14:21;;;;;;;1.98;1.55;;;;;;;;;;8192138;28;20031;-70
2022/04/17 11:18:27;;;;;;;2.78;1.50;;;;;;;;;;8192063;28;20038;-70
2022/04/17 11:22:34;;;;;;;1.70;1.58;;;;;;;;;;8191539;28;20069;-70
2022/04/17 11:26:53;;;;;;;2.03;1.40;;;;;;;;;;8192221;28;20033;-70
2022/04/17 11:30:54;;;;;;;2.00;1.40;;;;;;;;;;8172679;28;20038;-70
2022/04/17 11:34:55;;;;;;;1.63;1.50;;;;;;;;;;8172861;28;20062;-70
2022/04/17 11:38:55;;;;;;;1.45;1.35;;;;;;;;;;8191449;28;20038;-70
2022/04/17 11:42:57;;;;;;;3.93;1.40;;;;;;;;;;8190211;28;20096;-70
2022/04/17 11:46:57;;;;;;;1.95;1.35;;;;;;;;;;8191018;28;20621;-70
2022/04/17 11:50:57;;;;;;;1.92;1.42;;;;;;;;;;8193340;28;20042;-70
2022/04/17 11:54:59;;;;;;;4.00;1.60;;;;;;;;;;8192040;28;20026;-70
2022/04/17 11:59:03;;;;;;;3.10;1.50;;;;;;;;;;8191640;28;20030;-70
2022/04/17 12:03:07;;;;;;;1.48;1.30;;;;;;;;;;8190678;28;20038;-70
2022/04/17 12:07:07;;;;;;;;;;;;;;;;;;8193346;28;20042;-69
2022/04/17 12:11:08;;;;;;;2.38;1.45;;;;;;;;;;8190221;28;20916;-70
2022/04/17 12:15:09;;;;;;;1.63;1.10;;;;;;;;;;8191198;28;20031;-70
2022/04/17 12:19:14;;;;;;;1.80;1.40;;;;;;;;;;8193501;28;20077;-70
2022/04/17 12:23:14;;;;;;;5.55;1.45;;;;;;;;;;8191709;28;20061;-70
2022/04/17 12:27:19;;;;;;;1.88;1.30;;;;;;;;;;8190026;28;20027;-70
2022/04/17 12:31:19;;;;;;;2.90;1.40;;;;;;;;;;8188933;28;20146;-70
2022/04/17 12:35:23;;;;;;;1.50;1.00;;;;;;;;;;8186526;28;20956;-70
2022/04/17 12:39:31;;;;;;;1.95;1.20;;;;;;;;;;8189893;28;20039;-70
2022/04/17 12:43:32;;;;;;;1.90;1.30;;;;;;;;;;8188426;28;20037;-71
2022/04/17 12:47:32;;;;;;;2.67;1.30;;;;;;;;;;8188749;28;20042;-74
2022/04/17 12:51:33;;;;;;;1.60;1.17;;;;;;;;;;8178634;28;20161;-70
2022/04/17 12:55:34;;;;;;;2.47;1.08;;;;;;;;;;8199056;28;20031;-70
2022/04/17 12:59:47;;;;;;;2.97;1.20;;;;;;;;;;8198810;28;20040;-70
2022/04/17 13:03:48;;;;;;;2.08;1.20;;;;;;;;;;8194728;28;20049;-70
2022/04/17 13:07:48;;;;;;;1.20;1.08;;;;;;;;;;8197045;28;20113;-70
2022/04/17 13:11:51;;;;;;;2.70;1.08;;;;;;;;;;8197195;28;20027;-70
2022/04/17 13:15:59;;;;;;;2.58;1.20;;;;;;;;;;8195918;28;20488;-70
2022/04/17 13:20:00;;;;;;;1.10;1.00;;;;;;;;;;8196575;28;20089;-70
2022/04/17 13:24:01;;;;;;;4.05;1.10;;;;;;;;;;8196240;28;20113;-70
2022/04/17 13:28:01;;;;;;;1.13;1.00;;;;;;;;;;8196299;28;20026;-70
2022/04/17 13:32:01;;;;;;;2.05;1.10;;;;;;;;;;8193386;28;20030;-70
2022/04/17 13:36:02;;;;;;;2.10;0.90;;;;;;;;;;8174693;28;20779;-71
2022/04/17 13:40:03;;;;;;;1.40;1.07;;;;;;;;;;8194496;28;20258;-70
2022/04/17 13:44:04;;;;;;;2.63;1.27;;;;;;;;;;8194893;28;20278;-71
2022/04/17 13:48:04;;;;;;;2.28;1.00;;;;;;;;;;8195753;28;21082;-70
2022/04/17 13:52:04;;;;;;;1.10;1.00;;;;;;;;;;8195475;28;20031;-71
2022/04/17 13:56:04;;;;;;;2.40;1.17;;;;;;;;;;8196596;28;20030;-70
2022/04/17 14:00:05;;;;;;;1.45;1.10;;;;;;;;;;8196174;28;20129;-70
2022/04/17 14:04:05;;;;;;;4.60;1.10;;;;;;;;;;8196801;28;20056;-70
2022/04/17 14:08:06;;;;;;;2.13;1.20;;;;;;;;;;8194228;28;20031;-70
2022/04/17 14:12:08;;;;;;;1.92;1.00;;;;;;;;;;8195257;28;20022;-70
2022/04/17 14:16:08;;;;;;;1.80;0.98;;;;;;;;;;8197875;28;20058;-70
2022/04/17 14:20:09;;;;;;;1.35;0.90;;;;;;;;;;8194380;28;20046;-70
2022/04/17 14:24:09;;;;;;;1.90;0.90;;;;;;;;;;8194902;28;20034;-70
2022/04/17 14:28:09;;;;;;;2.17;1.20;;;;;;;;;;8193510;28;20019;-70
2022/04/17 14:32:10;;;;;;;1.58;1.15;;;;;;;;;;8196263;28;20034;-70
2022/04/17 14:36:10;;;;;;;2.08;1.00;;;;;;;;;;8194137;28;20542;-70
2022/04/17 14:40:10;;;;;;;1.25;0.90;;;;;;;;;;8176602;28;20027;-70
2022/04/17 14:44:11;;;;;;;1.48;0.90;;;;;;;;;;8194426;28;20142;-71
2022/04/17 14:48:12;;;;;;;1.08;0.95;;;;;;;;;;8193767;28;20038;-70
2022/04/17 14:52:12;;;;;;;1.27;1.00;;;;;;;;;;8195341;28;20030;-71
2022/04/17 14:56:12;;;;;;;1.08;0.98;;;;;;;;;;8193769;28;20053;-71
2022/04/17 15:00:13;;;;;;;1.02;0.90;;;;;;;;;;8191516;28;20023;-70
2022/04/17 15:04:14;;;;;;;1.30;1.00;;;;;;;;;;8194581;28;20035;-71
2022/04/17 15:08:15;;;;;;;2.80;1.00;;;;;;;;;;8194302;28;20535;-70
2022/04/17 15:12:15;;;;;;;0.80;0.80;;;;;;;;;;8174665;28;20449;-70
2022/04/17 15:16:15;;;;;;;3.88;1.08;;;;;;;;;;8193730;28;20061;-70
2022/04/17 15:20:15;;;;;;;1.67;1.00;;;;;;;;;;8192545;28;20061;-70
2022/04/17 15:24:15;;;;;;;2.00;1.00;;;;;;;;;;8193792;28;20079;-70
2022/04/17 15:28:15;;;;;;;1.88;1.00;;;;;;;;;;8195144;28;20077;-70
2022/04/17 15:32:16;;;;;;;1.30;0.90;;;;;;;;;;8193821;28;20027;-70
2022/04/17 15:36:17;;;;;;;1.30;0.90;;;;;;;;;;8194095;28;20035;-70
2022/04/17 15:40:17;;;;;;;1.52;0.90;;;;;;;;;;8191012;28;20201;-70
2022/04/17 15:48:37;;;;;;;1.23;0.90;;;;;;;;;;8195022;28;20046;-70
2022/04/17 15:52:37;;;;;;;1.17;1.05;;;;;;;;;;8191325;28;20106;-70
2022/04/17 15:56:37;;;;;;;1.65;1.08;;;;;;;;;;8192473;28;20068;-70
2022/04/17 16:00:37;;;;;;;0.90;0.82;;;;;;;;;;8193530;28;20041;-70
2022/04/17 16:04:37;;;;;;;0.77;0.75;;;;;;;;;;8192141;28;20110;-70
2022/04/17 16:08:38;;;;;;;0.83;0.80;;;;;;;;;;8190704;28;20018;-70
2022/04/17 16:12:38;;;;;;;2.78;0.90;;;;;;;;;;8192678;28;20089;-70
2022/04/17 16:16:38;;;;;;;2.58;0.90;;;;;;;;;;8192073;28;20602;-70
2022/04/17 16:20:38;;;;;;;1.00;0.90;;;;;;;;;;8190724;28;20099;-70
2022/04/17 16:24:39;;;;;;;1.33;1.02;;;;;;;;;;8195497;28;20041;-70
2022/04/17 16:28:40;;;;;;;1.20;1.00;;;;;;;;;;8200464;28;20023;-70
2022/04/17 16:32:40;;;;;;;1.80;0.95;;;;;;;;;;8196650;28;20115;-70
2022/04/17 16:36:40;;;;;;;1.08;0.90;;;;;;;;;;8198087;28;20033;-70
2022/04/17 16:40:40;;;;;;;1.20;1.10;;;;;;;;;;8196425;28;20041;-70
2022/04/17 16:44:40;;;;;;;2.00;1.10;;;;;;;;;;8197505;28;20812;-70
2022/04/17 16:48:41;;;;;;;1.20;0.90;;;;;;;;;;8197864;28;20034;-70
2022/04/17 16:52:42;;;;;;;1.48;0.82;;;;;;;;;;8196864;28;20070;-70
2022/04/17 16:56:42;;;;;;;1.38;0.90;;;;;;;;;;8198253;28;20464;-70
2022/04/17 17:00:42;;;;;;;1.00;1.00;;;;;;;;;;8196736;28;20389;-70
2022/04/17 17:04:42;;;;;;;1.40;0.90;;;;;;;;;;8197108;28;20030;-70
2022/04/17 17:08:42;;;;;;;5.20;1.00;;;;;;;;;;8181674;28;20680;-70
2022/04/17 17:12:43;;;;;;;0.90;0.80;;;;;;;;;;8189810;28;20628;-70
2022/04/17 17:16:43;;;;;;;2.08;1.00;;;;;;;;;;8195491;28;20038;-70
2022/04/17 17:20:43;;;;;;;2.28;0.95;;;;;;;;;;8176471;28;20122;-70
2022/04/17 17:24:43;;;;;;;1.15;0.80;;;;;;;;;;8192096;28;20038;-70
2022/04/17 17:28:44;;;;;;;1.58;0.93;;;;;;;;;;8195915;28;20097;-70
2022/04/17 17:32:44;;;;;;;1.33;0.80;;;;;;;;;;8193574;28;20035;-70
2022/04/17 17:36:44;;;;;;;0.80;0.80;;;;;;;;;;8192958;28;20561;-69
2022/04/17 17:40:45;;;;;;;1.38;0.90;;;;;;;;;;8177253;28;20033;-70
2022/04/17 17:44:45;;;;;;;2.67;0.90;;;;;;;;;;8192592;28;20034;-70
2022/04/17 17:48:45;;;;;;;1.00;0.82;;;;;;;;;;8191599;28;20317;-70
2022/04/17 17:52:51;;;;;;;2.58;0.90;;;;;;;;;;8190957;28;20054;-70
2022/04/17 17:56:53;;;;;;;1.27;0.70;;;;;;;;;;8193991;28;20026;-70
2022/04/17 18:00:55;;;;;;;0.73;0.73;;;;;;;;;;8193423;28;20070;-70
2022/04/17 18:04:55;;;;;;;1.77;0.82;;;;;;;;;;8195330;28;20030;-70
2022/04/17 18:17:37;;;;;;;1.67;0.60;;;;;;;;;;8190081;28;20042;-70
2022/04/17 18:21:37;;;;;;;0.80;0.80;;;;;;;;;;8192399;28;20023;-70
2022/04/17 18:25:37;;;;;;;1.17;0.93;;;;;;;;;;8193163;28;20031;-70
2022/04/17 18:29:38;;;;;;;1.02;0.80;;;;;;;;;;8191157;28;20034;-70
2022/04/17 18:33:38;;;;;;;1.75;0.80;;;;;;;;;;8192327;28;20097;-70
2022/04/17 18:37:39;;;;;;;0.80;0.63;;;;;;;;;;8194349;28;20026;-70
2022/04/17 18:41:39;;;;;;;1.55;0.80;;;;;;;;;;8189767;28;20634;-70
2022/04/17 18:45:39;;;;;;;0.98;0.70;;;;;;;;;;8190626;28;20114;-70
2022/04/17 18:49:39;;;;;;;0.80;0.80;;;;;;;;;;8191442;28;20046;-70
2022/04/17 18:53:39;;;;;;;0.70;0.70;;;;;;;;;;8191026;28;20043;-70
2022/04/17 18:57:40;;;;;;;2.80;0.80;;;;;;;;;;8192026;28;20030;-70
2022/04/17 19:01:40;;;;;;;1.00;0.80;;;;;;;;;;8189359;28;20303;-70
2022/04/17 19:05:40;;;;;;;2.50;0.80;;;;;;;;;;8190970;28;20869;-71
2022/04/17 19:09:41;;;;;;;1.80;0.73;;;;;;;;;;8190587;28;20031;-71
2022/04/17 19:13:59;;;;;;;1.80;1.10;;;;;;;;;;8191511;28;20129;-71
2022/04/17 19:17:59;;;;;;;1.42;1.00;;;;;;;;;;8190781;28;20035;-71
2022/04/17 19:22:00;;;;;;;5.43;1.35;;;;;;;;;;8188916;28;20155;-71
2022/04/17 19:26:00;;;;;;;1.73;1.30;;;;;;;;;;8187816;28;20181;-71
2022/04/17 19:30:00;;;;;;;1.48;1.10;;;;;;;;;;8174830;28;20506;-71
2022/04/17 19:38:20;;;;;;;1.30;1.08;;;;;;;;;;8190440;28;20626;-71
2022/04/17 19:42:21;;;;;;;2.13;1.13;;;;;;;;;;8189586;28;20034;-72
2022/04/17 19:46:21;;;;;;;4.65;1.73;;;;;;;;;;8190620;28;20046;-72
2022/04/17 19:50:21;;;;;;;2.17;1.58;;;;;;;;;;8189992;28;20118;-72
2022/04/17 19:54:21;;;;;;;2.22;1.00;;;;;;;;;;8190748;28;21022;-72
2022/04/17 19:58:22;;;;;;;1.92;1.50;;;;;;;;;;8188723;28;20026;-72
2022/04/17 20:02:23;;;;;;;1.60;1.10;;;;;;;;;;8189260;28;21019;-71
2022/04/17 20:06:23;;;;;;;1.85;1.10;;;;;;;;;;8173356;28;20092;-72
2022/04/17 20:10:24;;;;;;;2.60;1.10;;;;;;;;;;8188930;28;20035;-71
2022/04/17 20:14:24;;;;;;;2.58;1.10;;;;;;;;;;8174168;28;20059;-70
2022/04/17 20:18:24;;;;;;;1.20;1.10;;;;;;;;;;8189603;28;20046;-70
2022/04/17 20:22:24;;;;;;;0.90;0.90;;;;;;;;;;8173497;28;20034;-71
2022/04/17 20:26:24;;;;;;;1.60;1.10;;;;;;;;;;8190428;28;20034;-71
2022/04/17 20:30:25;;;;;;;1.42;1.00;;;;;;;;;;8187811;28;20042;-71
2022/04/17 20:34:25;;;;;;;1.73;1.30;;;;;;;;;;8187336;28;20023;-71
2022/04/17 20:38:25;;;;;;;1.73;1.13;;;;;;;;;;8172393;28;21080;-70
2022/04/17 20:42:26;;;;;;;2.47;1.20;;;;;;;;;;8190922;28;20110;-70
2022/04/17 20:50:45;;;;;;;2.40;1.25;;;;;;;;;;8183077;28;20197;-70
2022/04/17 20:54:45;;;;;;;1.95;1.40;;;;;;;;;;8189039;28;20023;-70
2022/04/17 20:58:45;;;;;;;2.00;1.20;;;;;;;;;;8191385;28;20038;-70
2022/04/17 21:02:46;;;;;;;2.47;1.30;;;;;;;;;;8189585;28;20035;-70
2022/04/17 21:06:46;;;;;;;1.30;1.20;;;;;;;;;;8190112;28;20039;-70
2022/04/17 21:10:47;;;;;;;3.08;1.48;;;;;;;;;;8193997;28;20055;-70
2022/04/17 21:14:48;;;;;;;2.38;1.15;;;;;;;;;;8197059;28;20122;-70
2022/04/17 21:18:48;;;;;;;3.22;1.50;;;;;;;;;;8198139;28;20070;-70
2022/04/17 21:22:48;;;;;;;2.63;1.88;;;;;;;;;;8197940;28;20097;-70
2022/04/17 21:26:48;;;;;;;2.47;1.33;;;;;;;;;;8196803;28;20031;-70
2022/04/17 21:30:49;;;;;;;2.08;1.65;;;;;;;;;;8196265;28;20034;-70
2022/04/17 21:34:49;;;;;;;2.13;1.50;;;;;;;;;;8196654;28;20023;-70
2022/04/17 21:38:49;;;;;;;4.68;2.33;;;;;;;;;;8196021;28;20033;-70
2022/04/17 21:42:50;;;;;;;2.25;1.77;;;;;;;;;;8196144;28;20065;-70
2022/04/17 21:46:50;;;;;;;1.75;1.30;;;;;;;;;;8198242;28;20674;-70
2022/04/17 21:50:50;;;;;;;1.70;1.25;;;;;;;;;;8185122;28;20034;-70
2022/04/17 21:54:51;;;;;;;1.17;1.00;;;;;;;;;;8201240;28;20397;-70
2022/04/17 21:58:51;;;;;;;1.60;1.40;;;;;;;;;;8196931;28;20045;-70
2022/04/17 22:07:10;;;;;;;1.35;1.20;;;;;;;;;;8198737;28;20033;-70
2022/04/17 22:11:11;;;;;;;1.63;1.40;;;;;;;;;;8198243;28;20019;-70
2022/04/17 22:15:12;;;;;;;1.52;1.42;;;;;;;;;;8195991;28;20027;-70
2022/04/17 22:19:12;;;;;;;2.50;1.63;;;;;;;;;;8198759;28;20030;-70
2022/04/17 22:23:12;;;;;;;1.77;1.30;;;;;;;;;;8194912;28;20031;-70
2022/04/17 22:27:14;;;;;;;1.90;1.50;;;;;;;;;;8198070;28;20124;-70
2022/04/17 22:31:14;;;;;;;2.22;1.50;;;;;;;;;;8196413;28;20027;-70
2022/04/17 22:35:14;;;;;;;1.45;1.25;;;;;;;;;;8195545;28;20030;-70
2022/04/17 22:39:14;;;;;;;1.63;1.20;;;;;;;;;;8197851;28;20355;-70
2022/04/17 22:43:15;;;;;;;1.40;1.30;;;;;;;;;;8196352;28;20472;-70
2022/04/17 22:47:15;;;;;;;2.20;1.30;;;;;;;;;;8180449;28;20745;-70
2022/04/17 22:51:15;;;;;;;1.40;1.15;;;;;;;;;;8196411;28;20142;-70
2022/04/17 22:55:15;;;;;;;2.87;1.13;;;;;;;;;;8195098;28;20022;-70
2022/04/17 22:59:15;;;;;;;1.60;1.25;;;;;;;;;;8195211;28;20368;-70
2022/04/17 23:03:16;;;;;;;1.73;1.27;;;;;;;;;;8194966;28;20035;-70
2022/04/17 23:07:16;;;;;;;4.53;1.38;;;;;;;;;;8195171;28;20022;-70
2022/04/17 23:11:16;;;;;;;1.08;1.05;;;;;;;;;;8195848;28;20027;-70
2022/04/17 23:15:17;;;;;;;1.20;1.10;;;;;;;;;;8195273;28;20019;-70
2022/04/17 23:19:17;;;;;;;0.95;0.90;;;;;;;;;;8178030;28;20385;-70
2022/04/17 23:23:17;;;;;;;1.50;1.20;;;;;;;;;;8195242;28;20022;-70
2022/04/17 23:27:18;;;;;;;2.75;1.23;;;;;;;;;;8180579;28;20958;-70
2022/04/17 23:31:18;;;;;;;1.02;0.90;;;;;;;;;;8179168;28;20039;-70
2022/04/17 23:35:19;;;;;;;1.00;0.95;;;;;;;;;;8193725;28;20070;-70
2022/04/17 23:39:19;;;;;;;1.60;1.20;;;;;;;;;;8195276;28;20018;-70
2022/04/17 23:43:19;;;;;;;1.23;1.10;;;;;;;;;;8197501;28;20110;-70
2022/04/17 23:47:20;;;;;;;1.27;1.13;;;;;;;;;;8195001;28;20886;-70
2022/04/17 23:51:21;;;;;;;3.30;1.50;;;;;;;;;;8194055;28;20278;-70
2022/04/17 23:55:21;;;;;;;1.48;1.38;;;;;;;;;;8194320;28;20015;-70
2022/04/17 23:59:22;;;;;;;1.98;1.20;;;;;;;;;;8181134;28;20022;-70
